Time;durP1;ratioP1;P1;durP2;ratioP2;P2;SDS_P1;SDS_P2;PMS_P1;PMS_P2;Temp;Humidity;BMP_temperature;BMP_pressure;BME280_temperature;BME280_humidity;BME280_pressure;Samples;Min_cycle;Max_cycle;Signal;HPM_P1;HPM_P2
2021/06/22 00:02:01;;;;;;;4.08;3.25;;;;;;;28.83;54.53;99562.77;1782037;78;22368;-66
2021/06/22 00:04:28;;;;;;;4.40;3.60;;;;;;;28.83;54.53;99559.23;1782988;79;21084;-67
2021/06/22 00:06:56;;;;;;;4.00;3.35;;;;;;;28.82;54.56;99558.42;1797515;78;21036;-66
2021/06/22 00:09:23;;;;;;;3.50;3.08;;;;;;;28.82;54.58;99556.25;1791047;78;21021;-65
2021/06/22 00:11:49;;;;;;;5.25;3.70;;;;;;;28.82;54.57;99558.98;1792637;78;21544;-66
2021/06/22 00:14:16;;;;;;;5.08;3.45;;;;;;;28.81;54.63;99555.42;1796158;78;21124;-66
2021/06/22 00:16:43;;;;;;;5.83;3.65;;;;;;;28.81;54.61;99555.42;1792467;78;21040;-66
2021/06/22 00:19:12;;;;;;;7.22;4.05;;;;;;;28.81;54.63;99551.32;1782928;80;21066;-65
2021/06/22 00:21:38;;;;;;;5.08;3.40;;;;;;;28.81;54.63;99560.08;1784288;80;21084;-66
2021/06/22 00:24:07;;;;;;;6.87;4.25;;;;;;;28.80;54.66;99557.91;1784176;78;21589;-66
2021/06/22 00:26:33;;;;;;;4.92;3.95;;;;;;;28.79;54.67;99552.16;1792873;78;21876;-64
2021/06/22 00:29:00;;;;;;;3.55;3.10;;;;;;;28.79;54.68;99558.20;1787415;79;21033;-67
2021/06/22 00:31:28;;;;;;;4.33;3.27;;;;;;;28.78;54.71;99561.49;1817692;78;21063;-65
2021/06/22 00:33:54;;;;;;;3.47;3.15;;;;;;;28.77;54.73;99568.05;1794930;78;21017;-67
2021/06/22 00:36:21;;;;;;;8.63;3.87;;;;;;;28.77;54.75;99568.61;1786124;80;21476;-67
2021/06/22 00:38:48;;;;;;;3.70;3.40;;;;;;;28.77;54.78;99569.42;1793421;78;21140;-67
2021/06/22 00:41:14;;;;;;;4.22;3.35;;;;;;;28.77;54.81;99563.14;1793656;78;21525;-66
2021/06/22 00:43:42;;;;;;;4.17;3.20;;;;;;;28.77;54.82;99554.38;1776536;80;21076;-66
2021/06/22 00:46:10;;;;;;;6.80;4.20;;;;;;;28.76;54.81;99557.41;1780129;80;21072;-66
2021/06/22 00:48:37;;;;;;;3.60;3.00;;;;;;;28.75;54.84;99555.23;1782242;79;21551;-66
2021/06/22 00:51:05;;;;;;;5.85;3.70;;;;;;;28.74;54.82;99550.89;1754849;80;21148;-66
2021/06/22 00:53:32;;;;;;;3.60;3.12;;;;;;;28.74;54.83;99557.72;1779773;79;21024;-65
2021/06/22 00:56:00;;;;;;;4.65;3.42;;;;;;;28.72;54.86;99547.61;1756858;79;21532;-67
2021/06/22 00:58:28;;;;;;;6.53;4.40;;;;;;;28.73;54.82;99551.17;1756408;81;21048;-66
2021/06/22 01:00:55;;;;;;;5.72;3.60;;;;;;;28.74;54.83;99559.62;1792997;80;21012;-65
2021/06/22 01:03:22;;;;;;;5.62;3.60;;;;;;;28.72;54.87;99558.54;1795423;77;23007;-66
2021/06/22 01:05:49;;;;;;;5.40;4.00;;;;;;;28.72;54.87;99555.80;1783841;79;21029;-66
2021/06/22 01:08:17;;;;;;;4.80;3.67;;;;;;;28.71;54.89;99550.66;1750374;80;21073;-65
2021/06/22 01:10:43;;;;;;;5.78;3.75;;;;;;;28.70;54.91;99552.55;1763160;80;21529;-66
2021/06/22 01:13:10;;;;;;;7.75;3.50;;;;;;;28.69;54.94;99546.84;1766253;80;21087;-65
2021/06/22 01:15:37;;;;;;;5.03;3.58;;;;;;;28.69;54.91;99556.41;1810334;79;22050;-65
2021/06/22 01:18:07;;;;;;;5.22;3.70;;;;;;;28.69;54.96;99551.50;1786345;80;21048;-66
2021/06/22 01:20:42;;;;;;;4.70;3.60;;;;;;;28.69;54.99;99556.41;1788161;79;21044;-66
2021/06/22 01:23:10;;;;;;;6.05;4.12;;;;;;;28.68;54.98;99555.33;1761688;79;21038;-66
2021/06/22 01:25:38;;;;;;;6.58;3.87;;;;;;;28.67;55.04;99552.35;1792645;79;21875;-67
2021/06/22 01:28:05;;;;;;;4.47;3.10;;;;;;;28.67;55.04;99548.25;1806627;79;22272;-67
2021/06/22 01:30:33;;;;;;;6.83;3.70;;;;;;;28.66;55.07;99546.05;1786032;78;21029;-66
2021/06/22 01:33:05;;;;;;;6.00;4.10;;;;;;;28.65;55.05;99548.54;1751101;81;21029;-65
2021/06/22 01:35:32;;;;;;;6.35;4.03;;;;;;;28.64;55.08;99537.33;1804576;78;21000;-65
2021/06/22 01:38:07;;;;;;;6.60;3.87;;;;;;;28.62;55.10;99528.05;1800522;78;21021;-65
2021/06/22 01:40:47;;;;;;;5.95;3.92;;;;;;;28.62;55.11;99519.86;1800082;78;21097;-65
2021/06/22 01:43:17;;;;;;;5.87;3.45;;;;;;;28.61;55.14;99511.42;1770652;80;21031;-67
2021/06/22 01:45:46;;;;;;;4.72;3.50;;;;;;;28.60;55.17;99507.61;1769355;78;21057;-67
2021/06/22 01:48:14;;;;;;;5.78;3.75;;;;;;;28.59;55.17;99509.53;1783546;79;20985;-68
2021/06/22 01:50:45;;;;;;;5.47;3.47;;;;;;;28.59;55.19;99510.90;1771970;78;21049;-66
2021/06/22 01:53:13;;;;;;;7.65;4.12;;;;;;;28.59;55.21;99504.63;1808373;78;22601;-65
2021/06/22 01:55:43;;;;;;;5.55;4.12;;;;;;;28.57;55.25;99506.28;1813718;78;21083;-66
2021/06/22 01:58:13;;;;;;;7.12;4.10;;;;;;;28.57;55.22;99506.84;1792026;78;21556;-67
2021/06/22 02:00:45;;;;;;;8.30;4.08;;;;;;;28.56;55.25;99494.27;1811510;78;21008;-66
2021/06/22 02:03:15;;;;;;;6.55;4.17;;;;;;;28.56;55.27;99503.84;1794039;77;21592;-66
2021/06/22 02:05:44;;;;;;;5.30;3.42;;;;;;;28.55;55.29;99507.66;1816416;78;21247;-67
2021/06/22 02:08:11;;;;;;;6.05;3.85;;;;;;;28.54;55.32;99518.34;1814179;77;21037;-65
2021/06/22 02:10:38;;;;;;;6.87;3.95;;;;;;;28.54;55.34;99522.45;1810803;78;21638;-67
2021/06/22 02:13:09;;;;;;;8.30;3.85;;;;;;;28.54;55.35;99525.18;1784006;78;21048;-66
2021/06/22 02:15:38;;;;;;;5.85;3.62;;;;;;;28.53;55.35;99524.91;1778303;78;21009;-68
2021/06/22 02:18:07;;;;;;;6.62;4.28;;;;;;;28.54;55.36;99526.55;1787756;78;21145;-67
2021/06/22 02:20:36;;;;;;;5.20;3.70;;;;;;;28.52;55.36;99520.56;1775073;78;21072;-67
2021/06/22 02:23:04;;;;;;;7.70;4.00;;;;;;;28.52;55.40;99521.92;1794459;79;21087;-67
2021/06/22 02:25:33;;;;;;;7.80;4.00;;;;;;;28.52;55.41;99509.63;1803766;78;21646;-66
2021/06/22 02:28:11;;;;;;;4.35;3.40;;;;;;;28.52;55.45;99509.63;1774933;78;21083;-67
2021/06/22 02:30:38;;;;;;;6.67;3.72;;;;;;;28.50;55.44;99508.52;1794422;78;21171;-66
2021/06/22 02:33:06;;;;;;;8.60;4.10;;;;;;;28.51;55.47;99505.23;1785506;78;21576;-67
2021/06/22 02:35:34;;;;;;;7.90;3.40;;;;;;;28.51;55.47;99503.86;1781422;79;21517;-65
2021/06/22 02:38:02;;;;;;;5.92;4.03;;;;;;;28.51;55.49;99509.33;1778704;80;21076;-66
2021/06/22 02:40:29;;;;;;;7.58;3.90;;;;;;;28.50;55.49;99507.72;1790135;78;21041;-67
2021/06/22 02:42:57;;;;;;;5.25;3.72;;;;;;;28.50;55.52;99514.55;1793623;79;21095;-67
2021/06/22 02:45:24;;;;;;;9.90;3.98;;;;;;;28.49;55.51;99508.28;1786101;79;21013;-66
2021/06/22 02:47:54;;;;;;;9.70;4.15;;;;;;;28.50;55.54;99509.89;1773347;79;21005;-67
2021/06/22 02:50:21;;;;;;;5.95;3.77;;;;;;;28.49;55.50;99504.17;1767400;80;21012;-68
2021/06/22 02:52:48;;;;;;;7.35;3.92;;;;;;;28.50;55.52;99499.52;1806886;77;21044;-66
2021/06/22 02:55:19;;;;;;;7.42;3.83;;;;;;;28.50;55.54;99499.52;1772903;79;21084;-67
2021/06/22 02:57:50;;;;;;;7.45;4.40;;;;;;;28.50;55.54;99504.98;1810070;79;21119;-66
2021/06/22 03:00:20;;;;;;;11.97;4.62;;;;;;;28.49;55.53;99511.02;1759336;80;21093;-67
2021/06/22 03:02:47;;;;;;;6.97;4.70;;;;;;;28.50;55.56;99510.45;1767450;79;21560;-67
2021/06/22 03:05:13;;;;;;;7.90;3.80;;;;;;;28.49;55.58;99515.11;1811078;79;21067;-66
2021/06/22 03:07:42;;;;;;;7.78;3.95;;;;;;;28.49;55.59;99516.47;1741737;81;21151;-66
2021/06/22 03:10:12;;;;;;;8.15;3.92;;;;;;;28.49;55.60;99519.20;1773401;79;21040;-67
2021/06/22 03:12:39;;;;;;;8.70;4.25;;;;;;;28.49;55.60;99512.91;1785364;79;21119;-67
2021/06/22 03:15:20;;;;;;;11.93;4.78;;;;;;;28.49;55.59;99521.10;1793447;79;21063;-67
2021/06/22 03:17:49;;;;;;;7.05;3.80;;;;;;;28.49;55.65;99523.30;1810615;77;21520;-67
2021/06/22 03:20:16;;;;;;;7.28;3.83;;;;;;;28.49;55.66;99514.27;1790670;78;21082;-67
2021/06/22 03:22:42;;;;;;;7.78;4.05;;;;;;;28.49;55.66;99519.20;1803927;79;21070;-66
2021/06/22 03:25:12;;;;;;;6.25;4.00;;;;;;;28.49;55.66;99521.10;1783883;79;21554;-66
2021/06/22 03:27:40;;;;;;;7.25;4.03;;;;;;;28.50;55.66;99526.28;1799863;79;21088;-67
2021/06/22 03:30:13;;;;;;;7.60;4.05;;;;;;;28.50;55.65;99526.28;1776841;79;21468;-66
2021/06/22 03:32:43;;;;;;;7.62;4.70;;;;;;;28.51;55.65;99527.09;1781597;80;21116;-67
2021/06/22 03:35:11;;;;;;;8.00;3.95;;;;;;;28.52;55.66;99532.86;1811269;79;21021;-65
2021/06/22 03:37:37;;;;;;;8.55;4.45;;;;;;;28.51;55.67;99533.42;1817974;77;21040;-68
2021/06/22 03:40:07;;;;;;;8.93;4.28;;;;;;;28.52;55.65;99530.92;1797306;78;21049;-67
2021/06/22 03:42:36;;;;;;;9.13;4.97;;;;;;;28.53;55.64;99533.94;1804042;78;21048;-67
2021/06/22 03:45:07;;;;;;;7.72;4.00;;;;;;;28.53;55.67;99538.03;1795817;78;21111;-67
2021/06/22 03:47:35;;;;;;;;;;;;;;;28.54;55.64;99532.81;1802058;78;21505;-68
2021/06/22 03:51:50;;;;;;;7.50;3.98;;;;;;;28.55;55.76;99532.25;1811863;79;22654;-67
2021/06/22 03:54:18;;;;;;;7.37;4.00;;;;;;;28.46;55.87;99534.80;1784335;80;21115;-66
2021/06/22 03:56:45;;;;;;;7.53;3.80;;;;;;;28.49;55.84;99531.50;1783907;80;21210;-66
2021/06/22 03:59:14;;;;;;;8.35;4.47;;;;;;;28.52;55.80;99535.03;1777133;79;20954;-67
2021/06/22 04:01:41;;;;;;;10.25;4.65;;;;;;;28.55;55.78;99528.16;1784366;80;21478;-66
2021/06/22 04:04:08;;;;;;;9.65;4.10;;;;;;;28.55;55.74;99519.95;1780488;80;21101;-66
2021/06/22 04:06:43;;;;;;;9.78;4.53;;;;;;;28.57;55.74;99519.95;1771781;80;21037;-66
2021/06/22 04:09:09;;;;;;;7.67;3.98;;;;;;;28.58;55.71;99516.09;1779498;80;21077;-67
2021/06/22 04:11:38;;;;;;;8.50;4.47;;;;;;;28.59;55.70;99520.46;1784589;80;20993;-67
2021/06/22 04:14:05;;;;;;;8.83;4.55;;;;;;;28.60;55.69;99515.24;1780427;80;21065;-67
2021/06/22 04:16:36;;;;;;;8.58;4.58;;;;;;;28.62;55.68;99514.39;1775223;80;21505;-66
2021/06/22 04:19:03;;;;;;;9.55;4.67;;;;;;;28.63;55.62;99520.13;1773063;80;21036;-67
2021/06/22 04:21:31;;;;;;;8.28;4.30;;;;;;;28.66;55.62;99519.28;1785342;80;21257;-67
2021/06/22 04:23:58;;;;;;;8.70;4.22;;;;;;;28.66;55.62;99524.19;1759505;80;21049;-67
2021/06/22 04:26:25;;;;;;;9.15;4.58;;;;;;;28.69;55.59;99529.08;1786952;80;21080;-68
2021/06/22 04:28:52;;;;;;;9.80;4.70;;;;;;;28.70;55.60;99532.05;1775917;80;21065;-67
2021/06/22 04:31:19;;;;;;;6.95;3.95;;;;;;;28.72;55.56;99535.30;1775842;79;21069;-67
2021/06/22 04:33:46;;;;;;;9.05;5.12;;;;;;;28.74;55.55;99541.32;1777060;80;21517;-68
2021/06/22 04:36:12;;;;;;;8.70;3.87;;;;;;;28.76;55.52;99539.64;1772699;80;21060;-68
2021/06/22 04:38:39;;;;;;;6.97;3.77;;;;;;;28.79;55.49;99543.16;1774831;80;21089;-67
2021/06/22 04:41:05;;;;;;;8.98;4.30;;;;;;;28.82;55.43;99550.78;1785742;80;21493;-68
2021/06/22 04:43:35;;;;;;;7.70;4.50;;;;;;;28.86;55.39;99546.88;1780474;80;21077;-65
2021/06/22 04:46:03;;;;;;;15.85;5.47;;;;;;;28.88;55.49;99538.67;1779618;80;21041;-64
2021/06/22 04:48:30;;;;;;;13.05;5.92;;;;;;;28.90;55.58;99539.75;1769106;79;21097;-63
2021/06/22 04:50:59;;;;;;;20.27;5.90;;;;;;;28.92;55.76;99536.16;1778242;79;21045;-64
2021/06/22 04:53:26;;;;;;;16.85;5.53;;;;;;;28.93;55.88;99546.78;1772265;80;21010;-63
2021/06/22 04:55:53;;;;;;;20.50;5.42;;;;;;;28.95;55.84;99540.45;1775081;80;21040;-63
2021/06/22 04:58:19;;;;;;;22.85;6.37;;;;;;;28.98;55.80;99539.08;1768043;79;21092;-63
2021/06/22 05:00:46;;;;;;;24.05;6.08;;;;;;;29.00;55.85;99539.59;1760164;80;21065;-63
2021/06/22 05:03:12;;;;;;;20.23;6.97;;;;;;;29.01;55.54;99528.37;1772029;80;21060;-64
2021/06/22 05:05:38;;;;;;;23.50;6.92;;;;;;;29.04;55.40;99530.25;1763818;80;21092;-63
2021/06/22 05:08:06;;;;;;;21.70;6.20;;;;;;;29.05;55.17;99523.09;1768393;80;21039;-63
2021/06/22 05:10:32;;;;;;;22.75;6.75;;;;;;;29.06;55.01;99524.73;1748887;80;22289;-64
2021/06/22 05:12:59;;;;;;;24.87;7.10;;;;;;;29.06;54.90;99516.53;1775478;80;21018;-64
2021/06/22 05:15:25;;;;;;;22.48;6.80;;;;;;;29.08;55.09;99518.97;1763539;80;21049;-64
2021/06/22 05:17:51;;;;;;;27.95;7.87;;;;;;;29.08;55.07;99514.31;1757493;80;21058;-62
2021/06/22 05:20:18;;;;;;;29.55;7.35;;;;;;;29.10;55.03;99512.65;1775691;80;21081;-64
2021/06/22 05:22:44;;;;;;;27.77;7.53;;;;;;;29.10;54.64;99514.02;1765250;80;21506;-63
2021/06/22 05:25:12;;;;;;;30.48;8.33;;;;;;;29.12;54.70;99511.80;1766356;80;21025;-63
2021/06/22 05:27:38;;;;;;;27.17;8.28;;;;;;;29.12;54.91;99507.16;1765111;80;21106;-63
2021/06/22 05:30:06;;;;;;;30.75;8.68;;;;;;;29.14;54.98;99509.05;1773537;80;21061;-64
2021/06/22 05:32:33;;;;;;;35.70;9.23;;;;;;;29.15;54.88;99518.89;1774374;80;21155;-65
2021/06/22 05:35:00;;;;;;;30.85;8.85;;;;;;;29.16;54.64;99520.50;1771136;80;23090;-65
2021/06/22 05:37:26;;;;;;;23.00;8.13;;;;;;;29.15;54.46;99521.63;1777189;80;21088;-64
2021/06/22 05:39:53;;;;;;;33.10;8.10;;;;;;;29.18;54.43;99524.31;1773994;80;21034;-64
2021/06/22 05:42:19;;;;;;;27.70;7.97;;;;;;;29.18;54.15;99526.48;1773787;80;21132;-64
2021/06/22 05:44:46;;;;;;;27.40;7.90;;;;;;;29.19;54.29;99528.13;1775069;80;21014;-64
2021/06/22 05:47:12;;;;;;;28.15;6.95;;;;;;;29.21;54.26;99528.63;1777494;80;21761;-63
2021/06/22 05:49:39;;;;;;;25.45;8.05;;;;;;;29.21;53.85;99534.11;1773623;79;21073;-64
2021/06/22 05:52:06;;;;;;;31.90;8.65;;;;;;;29.23;54.06;99533.01;1773026;80;21013;-63
2021/06/22 05:54:33;;;;;;;28.52;8.03;;;;;;;29.24;53.84;99544.19;1772458;80;21057;-64
2021/06/22 05:56:59;;;;;;;26.73;7.40;;;;;;;29.25;53.74;99541.16;1756745;80;21097;-65
2021/06/22 05:59:25;;;;;;;26.02;7.67;;;;;;;29.26;53.65;99538.67;1767116;80;21201;-64
2021/06/22 06:01:52;;;;;;;28.40;8.20;;;;;;;29.27;53.39;99534.84;1762332;80;20971;-63
2021/06/22 06:04:18;;;;;;;24.37;7.95;;;;;;;29.28;53.34;99539.75;1767420;80;21623;-64
2021/06/22 06:06:46;;;;;;;31.52;7.15;;;;;;;29.29;53.37;99538.09;1773340;80;21041;-64
2021/06/22 06:09:13;;;;;;;29.15;9.18;;;;;;;29.31;53.25;99535.06;1763745;80;21010;-64
2021/06/22 06:11:41;;;;;;;28.00;8.30;;;;;;;29.32;53.31;99538.04;1754589;80;21204;-67
2021/06/22 06:14:07;;;;;;;26.33;7.37;;;;;;;29.33;53.70;99530.91;1762229;79;21051;-65
2021/06/22 06:16:34;;;;;;;27.07;7.58;;;;;;;29.34;54.20;99527.08;1754121;80;21582;-72
2021/06/22 06:19:00;;;;;;;26.95;7.58;;;;;;;29.35;54.56;99530.62;1747627;80;21019;-71
2021/06/22 06:21:27;;;;;;;23.70;6.95;;;;;;;29.36;54.50;99522.65;1744590;80;21105;-72
2021/06/22 06:23:56;;;;;;;26.95;7.75;;;;;;;29.38;54.38;99530.00;1730267;82;21080;-71
2021/06/22 06:26:22;;;;;;;28.25;8.08;;;;;;;29.40;54.25;99526.44;1767812;80;20994;-70
2021/06/22 06:28:53;;;;;;;21.97;6.78;;;;;;;29.43;54.16;99527.20;1772102;80;21018;-71
2021/06/22 06:31:21;;;;;;;23.92;7.53;;;;;;;29.43;54.01;99523.09;1755773;80;21063;-71
2021/06/22 06:33:48;;;;;;;27.17;7.10;;;;;;;29.47;53.73;99518.64;1752255;80;21089;-70
2021/06/22 06:36:16;;;;;;;22.95;7.05;;;;;;;29.49;53.67;99521.08;1756897;80;21595;-71
2021/06/22 06:38:42;;;;;;;27.60;7.58;;;;;;;29.52;53.62;99513.66;1772278;80;21562;-70
2021/06/22 06:41:09;;;;;;;26.50;6.78;;;;;;;29.54;53.45;99505.39;1771238;80;21070;-69
2021/06/22 06:43:36;;;;;;;22.75;7.17;;;;;;;29.56;53.46;99499.06;1750802;80;21003;-70
2021/06/22 06:46:02;;;;;;;22.98;7.55;;;;;;;29.57;53.41;99496.59;1748898;80;21038;-70
2021/06/22 06:48:28;;;;;;;28.98;7.65;;;;;;;29.60;53.44;99497.91;1745653;80;21110;-71
2021/06/22 06:50:55;;;;;;;21.68;6.92;;;;;;;29.63;53.15;99497.29;1768258;80;21581;-71
2021/06/22 06:53:21;;;;;;;19.45;6.95;;;;;;;29.65;53.08;99506.58;1767354;80;21022;-70
2021/06/22 06:55:49;;;;;;;19.62;5.87;;;;;;;29.66;53.04;99502.17;1761283;80;21029;-71
2021/06/22 06:58:15;;;;;;;21.60;6.90;;;;;;;29.68;53.01;99505.98;1780735;80;21576;-71
2021/06/22 07:00:42;;;;;;;24.25;6.12;;;;;;;29.70;52.66;99502.39;1773965;80;21555;-74
2021/06/22 07:03:09;;;;;;;17.67;6.28;;;;;;;29.72;52.59;99498.25;1766713;80;21050;-77
2021/06/22 07:05:36;;;;;;;17.00;6.67;;;;;;;29.74;52.48;99500.13;1778168;80;21018;-74
2021/06/22 07:08:04;;;;;;;19.48;7.12;;;;;;;29.76;52.55;99506.12;1774483;80;21530;-76
2021/06/22 07:10:32;;;;;;;17.15;5.83;;;;;;;29.79;52.70;99514.30;1774883;80;21049;-77
2021/06/22 07:13:03;;;;;;;18.02;6.03;;;;;;;29.81;52.46;99522.22;1766469;80;21798;-77
2021/06/22 07:15:29;;;;;;;12.05;5.62;;;;;;;29.83;52.33;99546.81;1771364;80;21549;-74
2021/06/22 07:17:55;;;;;;;20.20;6.62;;;;;;;29.85;52.27;99553.36;1764563;80;21548;-73
2021/06/22 07:20:22;;;;;;;13.05;5.92;;;;;;;29.87;52.29;99548.39;1767057;80;21574;-75
2021/06/22 07:22:48;;;;;;;18.73;6.08;;;;;;;29.89;52.21;99555.18;1771513;80;21117;-75
2021/06/22 07:25:16;;;;;;;14.70;5.05;;;;;;;29.92;52.08;99551.02;1768140;80;21082;-75
2021/06/22 07:27:43;;;;;;;11.73;5.00;;;;;;;29.94;51.79;99550.16;1777107;80;21053;-77
2021/06/22 07:30:11;;;;;;;14.40;5.25;;;;;;;29.94;51.67;99540.04;1773031;80;21018;-78
2021/06/22 07:32:38;;;;;;;22.30;5.67;;;;;;;29.94;51.58;99538.67;1767563;80;21029;-73
2021/06/22 07:35:05;;;;;;;14.20;5.10;;;;;;;29.97;51.56;99543.52;1763512;80;21085;-76
2021/06/22 07:37:31;;;;;;;16.20;5.10;;;;;;;30.00;51.53;99548.97;1766336;80;21157;-77
2021/06/22 07:39:59;;;;;;;12.45;4.58;;;;;;;30.03;51.42;99535.22;1777447;80;21045;-76
2021/06/22 07:42:25;;;;;;;13.45;4.20;;;;;;;30.05;51.29;99534.36;1758384;80;21073;-77
2021/06/22 07:44:52;;;;;;;13.32;4.78;;;;;;;30.06;51.12;99544.22;1753382;80;21032;-79
2021/06/22 07:47:19;;;;;;;19.35;5.45;;;;;;;30.08;51.07;99542.79;1770572;80;21156;-78
2021/06/22 07:49:45;;;;;;;14.00;5.03;;;;;;;30.12;51.03;99548.48;1765093;80;21485;-62
2021/06/22 07:52:12;;;;;;;17.48;5.80;;;;;;;30.13;51.39;99556.40;1773145;80;21037;-63
2021/06/22 07:54:38;;;;;;;13.85;5.65;;;;;;;30.11;50.60;99550.38;1777944;80;21061;-62
2021/06/22 07:57:06;;;;;;;16.67;6.25;;;;;;;30.06;48.91;99553.80;1762189;80;21127;-63
2021/06/22 07:59:32;;;;;;;17.80;5.90;;;;;;;29.95;48.11;99551.23;1770311;79;21132;-64
2021/06/22 08:01:59;;;;;;;14.00;5.50;;;;;;;29.85;48.15;99547.31;1773239;80;21107;-61
2021/06/22 08:04:27;;;;;;;11.53;6.15;;;;;;;29.78;48.41;99555.10;1739808;82;21635;-62
2021/06/22 08:06:54;;;;;;;12.78;5.20;;;;;;;29.70;48.54;99544.25;1742927;82;21038;-62
2021/06/22 08:09:21;;;;;;;12.43;5.33;;;;;;;29.65;48.59;99544.36;1737157;82;21186;-63
2021/06/22 08:11:47;;;;;;;11.15;4.55;;;;;;;29.58;48.58;99540.62;1745337;82;21528;-63
2021/06/22 08:14:14;;;;;;;10.75;5.58;;;;;;;29.54;48.57;99536.06;1748760;82;23166;-62
2021/06/22 08:16:42;;;;;;;15.30;5.50;;;;;;;29.50;48.57;99535.84;1739220;82;21069;-63
2021/06/22 08:19:09;;;;;;;12.78;5.35;;;;;;;29.46;48.51;99537.55;1743162;82;21509;-62
2021/06/22 08:21:37;;;;;;;10.58;5.30;;;;;;;29.41;48.42;99532.95;1737658;82;21036;-62
2021/06/22 08:24:06;;;;;;;10.05;4.78;;;;;;;29.38;48.23;99532.73;1735854;82;21557;-63
2021/06/22 08:26:32;;;;;;;13.68;5.15;;;;;;;29.35;48.07;99537.45;1741718;82;21119;-62
2021/06/22 08:28:59;;;;;;;12.03;5.10;;;;;;;29.29;47.91;99527.71;1741121;81;21093;-62
2021/06/22 08:31:25;;;;;;;26.02;10.20;;;;;;;29.26;47.72;99527.73;1744178;82;21045;-62
2021/06/22 08:33:52;;;;;;;18.60;8.10;;;;;;;29.10;92.14;99527.13;1743749;82;20982;-62
2021/06/22 08:36:18;;;;;;;18.85;7.60;;;;;;;28.94;69.13;99524.38;1743717;82;21058;-62
2021/06/22 08:38:46;;;;;;;24.57;8.45;;;;;;;28.86;64.32;99531.85;1742142;82;21269;-63
2021/06/22 08:41:13;;;;;;;23.65;6.58;;;;;;;28.83;62.46;99533.27;1715968;83;21010;-61
2021/06/22 08:43:41;;;;;;;23.30;7.20;;;;;;;28.82;61.59;99534.39;1711011;83;21094;-60
2021/06/22 08:46:09;;;;;;;17.00;6.75;;;;;;;28.83;60.95;99531.33;1736585;82;21045;-62
2021/06/22 08:48:37;;;;;;;17.42;7.20;;;;;;;28.85;60.27;99531.61;1742686;82;21030;-61
2021/06/22 08:51:04;;;;;;;15.60;6.67;;;;;;;28.86;59.73;99538.16;1733691;82;21132;-61
2021/06/22 08:53:30;;;;;;;15.03;6.37;;;;;;;28.88;59.40;99541.94;1716901;82;21092;-61
2021/06/22 08:55:57;;;;;;;18.55;6.25;;;;;;;28.88;59.03;99537.30;1691433;83;21057;-59
2021/06/22 08:58:23;;;;;;;14.73;6.30;;;;;;;28.92;58.69;99541.63;1712706;83;21094;-61
2021/06/22 09:00:51;;;;;;;14.20;7.25;;;;;;;28.93;58.48;99548.70;1708892;83;21027;-60
2021/06/22 09:03:25;;;;;;;13.88;6.45;;;;;;;28.92;58.29;99539.70;1765489;80;21144;-60
2021/06/22 09:05:54;;;;;;;13.80;6.08;;;;;;;28.93;57.99;99550.08;1770895;80;20995;-60
2021/06/22 09:08:28;;;;;;;15.38;5.87;;;;;;;28.92;57.86;99547.91;1760007;80;21078;-61
2021/06/22 09:11:14;;;;;;;17.73;6.50;;;;;;;28.92;57.71;99545.73;1766384;80;21557;-62
2021/06/22 09:13:42;;;;;;;15.75;6.47;;;;;;;28.92;57.60;99550.64;1773844;80;21537;-61
2021/06/22 09:16:12;;;;;;;17.65;6.58;;;;;;;28.91;57.39;99539.98;1780075;80;21163;-61
2021/06/22 09:18:43;;;;;;;13.48;6.60;;;;;;;28.91;57.27;99539.98;1764703;80;21043;-61
2021/06/22 09:21:18;;;;;;;16.70;5.75;;;;;;;28.91;57.18;99540.80;1773771;80;21083;-61
2021/06/22 09:23:45;;;;;;;13.95;5.97;;;;;;;28.92;57.07;99543.00;1763285;80;21088;-61
2021/06/22 09:26:21;;;;;;;16.15;6.22;;;;;;;28.92;56.91;99544.36;1767162;80;21042;-61
2021/06/22 09:28:48;;;;;;;18.48;6.15;;;;;;;28.92;56.81;99536.16;1767921;80;21158;-60
2021/06/22 09:31:18;;;;;;;17.00;6.47;;;;;;;28.91;56.74;99536.69;1765418;80;21081;-61
2021/06/22 09:33:58;;;;;;;14.28;5.50;;;;;;;28.92;56.63;99546.54;1767450;80;21112;-64
2021/06/22 09:36:28;;;;;;;13.35;6.67;;;;;;;28.93;56.57;99544.05;1768950;80;21110;-60
2021/06/22 09:39:08;;;;;;;16.77;6.70;;;;;;;28.92;56.65;99531.50;1755692;80;20995;-62
2021/06/22 09:41:39;;;;;;;14.53;6.03;;;;;;;28.92;56.44;99534.23;1769491;80;21103;-61
2021/06/22 09:44:11;;;;;;;17.32;5.80;;;;;;;28.92;56.33;99536.97;1767403;80;21569;-61
2021/06/22 09:46:42;;;;;;;17.30;6.50;;;;;;;28.93;56.27;99536.41;1776656;80;21053;-60
2021/06/22 09:49:19;;;;;;;16.95;5.97;;;;;;;28.94;56.16;99533.38;1758273;80;21084;-60
2021/06/22 09:52:03;;;;;;;16.85;5.85;;;;;;;28.95;56.07;99530.89;1769734;80;21568;-60
2021/06/22 09:54:47;;;;;;;15.50;6.58;;;;;;;28.96;55.91;99531.73;1762584;80;21151;-60
2021/06/22 09:57:21;;;;;;;17.75;5.60;;;;;;;28.96;55.80;99527.63;1770959;80;21069;-60
2021/06/22 09:59:51;;;;;;;20.92;6.95;;;;;;;28.97;55.68;99535.51;1773930;80;21058;-62
2021/06/22 10:02:19;;;;;;;17.40;6.95;;;;;;;28.98;55.74;99530.88;1766710;80;21498;-60
2021/06/22 10:04:48;;;;;;;17.23;5.72;;;;;;;28.99;55.41;99532.48;1759676;80;21139;-60
2021/06/22 10:07:19;;;;;;;14.58;6.25;;;;;;;29.00;54.88;99542.33;1772715;80;21094;-61
2021/06/22 10:09:56;;;;;;;18.40;6.75;;;;;;;29.01;54.02;99535.73;1767853;80;21048;-61
2021/06/22 10:12:25;;;;;;;13.32;5.58;;;;;;;29.01;53.18;99528.90;1766721;79;21027;-59
2021/06/22 10:14:54;;;;;;;12.25;5.35;;;;;;;29.01;52.43;99522.06;1771234;80;21051;-59
2021/06/22 10:17:25;;;;;;;13.75;5.83;;;;;;;29.00;50.98;99529.46;1766844;80;21129;-62
2021/06/22 10:19:54;;;;;;;15.68;6.35;;;;;;;29.01;50.25;99524.80;1769174;80;21793;-59
2021/06/22 10:22:23;;;;;;;12.33;5.28;;;;;;;28.98;49.71;99519.94;1769687;79;21592;-61
2021/06/22 10:24:50;;;;;;;10.13;5.30;;;;;;;28.98;48.96;99524.04;1769209;80;21026;-61
2021/06/22 10:27:20;;;;;;;10.48;5.72;;;;;;;28.98;48.23;99522.11;1761823;80;21552;-64
2021/06/22 10:29:53;;;;;;;13.62;5.67;;;;;;;28.97;47.58;99516.37;1748031;80;21061;-61
2021/06/22 10:32:22;;;;;;;12.68;5.95;;;;;;;28.94;46.76;99508.77;1766546;80;21930;-60
2021/06/22 10:34:55;;;;;;;13.08;5.60;;;;;;;28.94;45.94;99510.14;1770034;80;21018;-61
2021/06/22 10:37:37;;;;;;;13.50;5.10;;;;;;;28.93;45.22;99504.40;1769729;80;21647;-62
2021/06/22 10:40:14;;;;;;;11.73;5.10;;;;;;;28.93;44.45;99509.06;1754036;80;25951;-61
2021/06/22 10:42:44;;;;;;;10.95;4.92;;;;;;;28.92;43.94;99507.45;1777042;80;21558;-60
2021/06/22 10:45:11;;;;;;;12.78;5.58;;;;;;;28.91;43.53;99500.34;1768610;80;21111;-61
2021/06/22 10:47:39;;;;;;;12.35;5.25;;;;;;;28.92;43.18;99501.42;1753851;80;21471;-61
2021/06/22 10:50:26;;;;;;;10.58;5.20;;;;;;;28.91;42.79;99494.31;1769261;80;20990;-61
2021/06/22 10:53:03;;;;;;;11.15;4.92;;;;;;;28.93;42.51;99505.77;1761743;80;21041;-60
2021/06/22 10:55:41;;;;;;;10.35;5.25;;;;;;;28.95;42.25;99484.97;1754148;80;20991;-60
2021/06/22 10:58:17;;;;;;;12.13;5.75;;;;;;;28.95;42.02;99493.98;1760463;80;21144;-60
2021/06/22 11:00:52;;;;;;;10.10;4.42;;;;;;;28.96;41.81;99486.61;1760470;80;21042;-60
2021/06/22 11:03:34;;;;;;;9.70;4.60;;;;;;;28.98;41.66;99492.03;1750922;80;21026;-61
2021/06/22 11:06:15;;;;;;;11.40;5.30;;;;;;;28.99;41.53;99494.20;1758516;80;21552;-61
2021/06/22 11:08:44;;;;;;;13.43;5.45;;;;;;;28.99;41.39;99491.47;1768485;80;21018;-60
2021/06/22 11:11:15;;;;;;;10.38;5.35;;;;;;;28.98;41.33;99496.70;1766287;80;21937;-60
2021/06/22 11:13:52;;;;;;;9.20;4.55;;;;;;;29.01;41.23;99498.82;1747226;80;28884;-60
2021/06/22 11:16:22;;;;;;;11.22;5.25;;;;;;;29.02;41.13;99496.36;1766807;80;20987;-60
2021/06/22 11:18:57;;;;;;;10.10;4.72;;;;;;;29.04;41.02;99497.44;1722137;82;21113;-59
2021/06/22 11:21:33;;;;;;;10.35;5.00;;;;;;;29.06;40.95;99499.31;1764824;80;21073;-60
2021/06/22 11:24:10;;;;;;;8.00;4.47;;;;;;;29.08;40.82;99505.30;1766066;80;21219;-60
2021/06/22 11:26:58;;;;;;;7.08;4.17;;;;;;;29.09;40.71;99500.91;1752185;80;21066;-60
2021/06/22 11:29:34;;;;;;;11.88;5.33;;;;;;;29.11;40.64;99491.02;1747308;80;21673;-59
2021/06/22 11:32:00;;;;;;;9.38;4.33;;;;;;;29.10;40.44;99492.94;1751610;80;21007;-60
2021/06/22 11:34:32;;;;;;;12.28;5.20;;;;;;;29.11;40.16;99492.38;1757835;80;21045;-62
2021/06/22 11:37:09;;;;;;;10.08;4.60;;;;;;;29.11;40.16;99497.31;1756867;80;21097;-60
2021/06/22 11:39:37;;;;;;;19.85;5.95;;;;;;;29.12;40.11;99493.48;1763413;80;21002;-62